createdAt,value
2019-04-09T00:00:34.691Z,6.50
2019-04-09T00:03:16.628Z,6.40
2019-04-09T00:05:47.852Z,6.40
2019-04-09T00:08:17.582Z,6.30
2019-04-09T00:10:47.239Z,6.30
2019-04-09T00:13:17.420Z,6.20
2019-04-09T00:15:47.813Z,6.20
2019-04-09T00:18:17.578Z,6.20
2019-04-09T00:20:47.199Z,6.10
2019-04-09T00:23:16.710Z,6.10
2019-04-09T00:25:46.806Z,6.10
2019-04-09T00:28:17.463Z,6.10
2019-04-09T00:30:47.560Z,6.10
2019-04-09T00:33:17.691Z,6.20
2019-04-09T00:35:47.624Z,6.20
2019-04-09T00:38:17.299Z,6.30
2019-04-09T00:40:46.831Z,6.30
2019-04-09T00:43:16.666Z,6.40
2019-04-09T00:45:46.791Z,6.40
2019-04-09T00:48:16.288Z,6.40
2019-04-09T00:50:45.870Z,6.30
2019-04-09T00:53:15.961Z,6.30
2019-04-09T00:55:45.988Z,6.30
2019-04-09T00:58:16.342Z,6.30
2019-04-09T01:00:50.918Z,6.30
2019-04-09T01:03:21.753Z,6.30
2019-04-09T01:05:51.871Z,6.30
2019-04-09T01:08:21.550Z,6.20
2019-04-09T01:10:51.230Z,6.20
2019-04-09T01:13:20.748Z,6.20
2019-04-09T01:15:51.303Z,6.20
2019-04-09T01:18:21.044Z,6.10
2019-04-09T01:20:50.577Z,6.20
2019-04-09T01:23:20.471Z,6.20
2019-04-09T01:26:04.036Z,6.20
2019-04-09T01:28:52.221Z,6.10
2019-04-09T01:31:23.524Z,6.20
2019-04-09T01:34:11.885Z,6.20
2019-04-09T01:37:01.618Z,6.10
2019-04-09T01:39:36.328Z,6.00
2019-04-09T01:42:10.845Z,5.80
2019-04-09T01:44:42.203Z,5.80
2019-04-09T01:47:20.065Z,5.70
2019-04-09T01:49:52.464Z,5.70
2019-04-09T01:52:26.979Z,5.70
2019-04-09T01:54:58.279Z,5.60
2019-04-09T01:57:41.782Z,5.60
2019-04-09T02:00:20.104Z,5.70
2019-04-09T02:03:08.876Z,5.70
2019-04-09T02:05:49.034Z,5.60
2019-04-09T02:08:32.480Z,5.60
2019-04-09T02:11:13.108Z,5.50
2019-04-09T02:13:56.634Z,5.50
2019-04-09T02:16:28.574Z,5.50
2019-04-09T02:19:02.954Z,5.40
2019-04-09T02:21:35.019Z,5.40
2019-04-09T02:24:12.127Z,5.20
2019-04-09T02:26:55.143Z,5.20
2019-04-09T02:29:33.233Z,5.10
2019-04-09T02:32:22.225Z,5.00
2019-04-09T02:35:10.645Z,5.00
2019-04-09T02:37:45.283Z,5.00
2019-04-09T02:40:23.467Z,4.90
2019-04-09T02:42:55.608Z,4.80
2019-04-09T02:45:27.087Z,4.80
2019-04-09T02:48:16.955Z,4.70
2019-04-09T02:50:48.966Z,4.70
2019-04-09T02:53:39.731Z,4.60
2019-04-09T02:56:29.103Z,4.60
2019-04-09T02:59:16.519Z,4.60
2019-04-09T03:01:59.943Z,4.60
2019-04-09T03:04:33.603Z,4.50
2019-04-09T03:07:23.679Z,4.50
2019-04-09T03:10:13.789Z,4.50
2019-04-09T03:12:54.404Z,4.40
2019-04-09T03:15:28.510Z,4.40
2019-04-09T03:18:05.609Z,4.40
2019-04-09T03:20:46.167Z,4.30
2019-04-09T03:23:33.365Z,4.30
2019-04-09T03:26:07.439Z,4.20
2019-04-09T03:28:41.574Z,4.20
2019-04-09T03:31:13.793Z,4.20
2019-04-09T03:33:45.897Z,4.20
2019-04-09T03:36:35.066Z,4.20
2019-04-09T03:39:20.161Z,4.20
2019-04-09T03:42:03.785Z,4.10
2019-04-09T03:44:37.999Z,4.00
2019-04-09T03:47:25.839Z,4.00
2019-04-09T03:50:00.768Z,4.00
2019-04-09T03:52:49.519Z,3.90
2019-04-09T03:55:21.044Z,3.90
2019-04-09T03:58:12.029Z,3.90
2019-04-09T04:00:39.777Z,3.90
2019-04-09T04:03:29.291Z,3.90
2019-04-09T04:06:01.172Z,3.80
2019-04-09T04:08:47.831Z,3.70
2019-04-09T04:11:35.939Z,3.70
2019-04-09T04:14:23.480Z,3.60
2019-04-09T04:17:10.945Z,3.60
2019-04-09T04:19:58.748Z,3.60
2019-04-09T04:22:48.031Z,3.50
2019-04-09T04:25:25.129Z,3.50
2019-04-09T04:27:56.634Z,3.50
2019-04-09T04:30:34.277Z,3.50
2019-04-09T04:33:12.372Z,3.40
2019-04-09T04:35:49.435Z,3.40
2019-04-09T04:38:20.813Z,3.40
2019-04-09T04:40:55.898Z,3.40
2019-04-09T04:43:30.941Z,3.40
2019-04-09T04:46:08.958Z,3.30
2019-04-09T04:48:49.169Z,3.30
2019-04-09T04:51:32.832Z,3.30
2019-04-09T04:54:04.277Z,3.30
2019-04-09T04:56:41.685Z,3.30
2019-04-09T04:59:16.011Z,3.30
2019-04-09T05:01:47.239Z,3.40
2019-04-09T05:04:30.852Z,3.50
2019-04-09T05:07:13.956Z,3.60
2019-04-09T05:10:01.533Z,3.70
2019-04-09T05:12:35.747Z,3.70
2019-04-09T05:15:23.400Z,3.70
2019-04-09T05:18:10.036Z,3.70
2019-04-09T05:20:53.489Z,3.70
2019-04-09T05:23:33.805Z,3.70
2019-04-09T05:26:05.405Z,3.70
2019-04-09T05:29:00.792Z,3.70
2019-04-09T05:31:45.772Z,3.70
2019-04-09T05:34:23.333Z,3.80
2019-04-09T05:37:04.507Z,3.80
2019-04-09T05:39:44.909Z,3.70
2019-04-09T05:42:19.305Z,3.80
2019-04-09T05:45:07.687Z,3.90
2019-04-09T05:47:39.026Z,3.80
2019-04-09T05:50:25.713Z,3.90
2019-04-09T05:52:57.551Z,3.90
2019-04-09T05:55:41.024Z,4.00
2019-04-09T05:58:29.680Z,4.20
2019-04-09T06:01:18.551Z,4.30
2019-04-09T06:04:07.454Z,4.40
2019-04-09T06:06:48.370Z,4.40
2019-04-09T06:09:22.698Z,4.30
2019-04-09T06:11:52.637Z,4.40
2019-04-09T06:14:23.205Z,4.30
2019-04-09T06:16:53.119Z,4.40
2019-04-09T06:19:23.129Z,4.40
2019-04-09T06:21:52.892Z,4.50
2019-04-09T06:24:22.815Z,4.50
2019-04-09T06:26:52.889Z,4.60
2019-04-09T06:29:24.647Z,4.60
2019-04-09T06:31:57.058Z,4.60
2019-04-09T06:34:28.616Z,4.60
2019-04-09T06:37:05.844Z,4.50
2019-04-09T06:39:40.940Z,4.60
2019-04-09T06:42:28.709Z,4.60
2019-04-09T06:45:17.487Z,4.70
2019-04-09T06:48:01.493Z,4.70
2019-04-09T06:50:45.254Z,4.70
2019-04-09T06:53:28.957Z,4.80
2019-04-09T06:56:09.488Z,4.90
2019-04-09T06:58:50.541Z,4.90
2019-04-09T07:01:35.027Z,5.10
2019-04-09T07:04:09.778Z,5.30
2019-04-09T07:06:42.116Z,4.90
2019-04-09T07:09:29.604Z,4.80
2019-04-09T07:12:16.367Z,4.70
2019-04-09T07:14:48.711Z,4.90
2019-04-09T07:17:20.482Z,4.90
2019-04-09T07:20:01.254Z,5.10
2019-04-09T07:22:38.797Z,5.00
2019-04-09T07:25:14.883Z,5.00
2019-04-09T07:27:54.663Z,5.00
2019-04-09T07:30:28.304Z,5.30
2019-04-09T07:33:14.015Z,5.40
2019-04-09T07:35:56.929Z,5.50
2019-04-09T07:38:32.924Z,5.60
2019-04-09T07:41:13.466Z,5.60
2019-04-09T07:44:03.544Z,5.70
2019-04-09T07:46:49.073Z,5.70
2019-04-09T07:49:31.950Z,5.50
2019-04-09T07:52:03.846Z,5.70
2019-04-09T07:54:53.151Z,6.00
2019-04-09T07:57:28.168Z,6.10
2019-04-09T08:00:17.520Z,6.00
2019-04-09T08:02:53.301Z,6.30
2019-04-09T08:05:27.873Z,6.30
2019-04-09T08:08:04.885Z,6.40
2019-04-09T08:10:36.383Z,6.50
2019-04-09T08:13:08.991Z,6.70
2019-04-09T08:15:41.261Z,7.00
2019-04-09T08:18:19.478Z,7.10
2019-04-09T08:20:49.828Z,7.40
2019-04-09T08:23:37.423Z,7.40
2019-04-09T08:26:17.834Z,7.30
2019-04-09T08:28:52.142Z,7.40
2019-04-09T08:31:48.052Z,7.10
2019-04-09T08:34:16.764Z,7.00
2019-04-09T08:37:05.128Z,7.30
2019-04-09T08:39:41.553Z,7.30
2019-04-09T08:42:14.988Z,7.50
2019-04-09T08:44:51.205Z,8.00
2019-04-09T08:47:39.107Z,8.20
2019-04-09T08:50:29.768Z,8.60
2019-04-09T08:53:00.344Z,8.20
2019-04-09T08:55:33.835Z,7.80
2019-04-09T08:58:04.651Z,7.80
2019-04-09T09:01:08.534Z,7.70
2019-04-09T09:03:12.731Z,8.00
2019-04-09T09:05:55.196Z,8.20
2019-04-09T09:08:27.181Z,8.50
2019-04-09T09:10:59.995Z,8.70
2019-04-09T09:13:35.846Z,8.70
2019-04-09T09:16:27.089Z,8.70
2019-04-09T09:19:06.559Z,8.60
2019-04-09T09:21:39.027Z,8.90
2019-04-09T09:24:15.432Z,9.10
2019-04-09T09:26:44.093Z,9.00
2019-04-09T09:29:24.998Z,9.20
2019-04-09T09:32:04.039Z,9.00
2019-04-09T09:34:54.194Z,8.70
2019-04-09T09:37:45.612Z,8.70
2019-04-09T09:40:14.126Z,8.70
2019-04-09T09:42:45.240Z,8.90
2019-04-09T09:45:33.763Z,9.00
2019-04-09T09:48:05.103Z,9.30
2019-04-09T09:50:38.907Z,9.40
2019-04-09T09:53:25.529Z,9.40
2019-04-09T09:55:57.725Z,9.50
2019-04-09T09:58:48.300Z,9.60
2019-04-09T10:01:32.384Z,9.60
2019-04-09T10:04:02.928Z,9.50
2019-04-09T10:06:37.432Z,9.40
2019-04-09T10:09:10.050Z,9.60
2019-04-09T10:11:56.910Z,9.70
2019-04-09T10:14:31.235Z,10.00
2019-04-09T10:17:08.562Z,10.20
2019-04-09T10:19:52.719Z,10.30
2019-04-09T10:22:43.548Z,10.40
2019-04-09T10:25:19.402Z,10.40
2019-04-09T10:27:56.493Z,10.40
2019-04-09T10:30:44.211Z,10.50
2019-04-09T10:33:27.427Z,10.50
2019-04-09T10:36:18.394Z,10.40
2019-04-09T10:39:02.142Z,10.40
2019-04-09T10:41:46.161Z,10.40
2019-04-09T10:44:15.037Z,10.50
2019-04-09T10:46:51.834Z,10.60
2019-04-09T10:49:24.257Z,10.80
2019-04-09T10:52:21.442Z,10.80
2019-04-09T10:54:59.529Z,10.80
2019-04-09T10:57:32.041Z,10.70
2019-04-09T11:00:20.628Z,10.60
2019-04-09T11:03:08.394Z,10.60
2019-04-09T11:06:00.214Z,10.70
2019-04-09T11:08:39.714Z,10.80
2019-04-09T11:11:13.087Z,11.00
2019-04-09T11:13:44.541Z,11.30
2019-04-09T11:16:16.921Z,11.60
2019-04-09T11:19:05.569Z,12.00
2019-04-09T11:21:43.533Z,12.60
2019-04-09T11:24:30.761Z,12.80
2019-04-09T11:27:20.515Z,12.80
2019-04-09T11:30:08.067Z,12.70
2019-04-09T11:32:40.277Z,12.40
2019-04-09T11:35:28.431Z,12.40
2019-04-09T11:38:16.345Z,12.10
2019-04-09T11:40:53.963Z,12.00
2019-04-09T11:43:42.441Z,11.90
2019-04-09T11:46:23.318Z,11.80
2019-04-09T11:49:12.014Z,11.70
2019-04-09T11:51:46.561Z,11.50
2019-04-09T11:54:24.747Z,11.50
2019-04-09T11:57:12.808Z,11.50
2019-04-09T12:00:01.639Z,11.60
2019-04-09T12:02:33.063Z,11.60
2019-04-09T12:05:04.622Z,11.60
2019-04-09T12:07:36.611Z,11.70
2019-04-09T12:10:08.555Z,11.70
2019-04-09T12:12:40.067Z,11.80
2019-04-09T12:15:28.785Z,11.80
2019-04-09T12:18:03.923Z,11.70
2019-04-09T12:20:38.353Z,11.70
2019-04-09T12:23:09.979Z,11.80
2019-04-09T12:25:44.188Z,12.00
2019-04-09T12:28:30.721Z,12.00
2019-04-09T12:31:12.106Z,12.00
2019-04-09T12:33:46.093Z,12.10
2019-04-09T12:36:29.242Z,12.00
2019-04-09T12:39:00.464Z,11.80
2019-04-09T12:41:37.759Z,11.90
2019-04-09T12:44:10.138Z,12.00
2019-04-09T12:46:51.410Z,11.90
2019-04-09T12:49:31.635Z,12.00
2019-04-09T12:52:09.227Z,12.00
2019-04-09T12:54:58.515Z,12.10
2019-04-09T12:57:48.094Z,12.20
2019-04-09T13:00:34.655Z,12.10
2019-04-09T13:03:09.160Z,12.10
2019-04-09T13:05:56.936Z,11.90
2019-04-09T13:08:28.562Z,11.90
2019-04-09T13:11:02.847Z,11.80
2019-04-09T13:13:43.415Z,11.90
2019-04-09T13:16:17.600Z,12.00
2019-04-09T13:19:05.468Z,12.10
2019-04-09T13:21:37.197Z,12.20
2019-04-09T13:24:09.265Z,12.10
2019-04-09T13:26:50.121Z,12.10
2019-04-09T13:29:39.532Z,12.20
2019-04-09T13:32:17.051Z,12.10
2019-04-09T13:35:12.155Z,12.10
2019-04-09T13:37:55.739Z,12.10
2019-04-09T13:40:43.369Z,12.20
2019-04-09T13:43:23.729Z,12.20
2019-04-09T13:45:55.973Z,12.10
2019-04-09T13:48:36.456Z,12.10
2019-04-09T13:51:13.839Z,12.20
2019-04-09T13:53:43.524Z,12.30
2019-04-09T13:56:13.167Z,12.30
2019-04-09T13:58:43.658Z,12.40
2019-04-09T14:01:14.525Z,12.40
2019-04-09T14:03:46.194Z,12.30
2019-04-09T14:06:17.022Z,12.30
2019-04-09T14:08:47.585Z,12.40
2019-04-09T14:11:17.258Z,12.50
2019-04-09T14:13:47.817Z,12.60
2019-04-09T14:16:18.607Z,12.60
2019-04-09T14:18:48.547Z,12.50
2019-04-09T14:21:18.690Z,12.50
2019-04-09T14:23:48.474Z,12.40
2019-04-09T14:26:18.294Z,12.40
2019-04-09T14:28:48.095Z,12.50
2019-04-09T14:31:18.041Z,12.50
2019-04-09T14:33:48.948Z,12.40
2019-04-09T14:36:18.768Z,12.30
2019-04-09T14:38:48.379Z,12.30
2019-04-09T14:41:18.593Z,12.30
2019-04-09T14:43:49.368Z,12.30
2019-04-09T14:46:19.564Z,12.40
2019-04-09T14:48:49.161Z,12.40
2019-04-09T14:51:19.287Z,12.40
2019-04-09T14:53:49.356Z,12.40
2019-04-09T14:56:19.455Z,12.30
2019-04-09T14:58:49.335Z,12.30
2019-04-09T15:01:19.717Z,12.30
2019-04-09T15:03:50.195Z,12.30
2019-04-09T15:06:20.119Z,12.20
2019-04-09T15:08:49.753Z,12.20
2019-04-09T15:11:19.311Z,12.10
2019-04-09T15:13:48.894Z,12.10
2019-04-09T15:16:19.244Z,12.10
2019-04-09T15:18:50.125Z,12.20
2019-04-09T15:21:31.188Z,12.30
2019-04-09T15:24:01.171Z,12.30
2019-04-09T15:26:30.880Z,12.20
2019-04-09T15:29:00.480Z,12.10
2019-04-09T15:31:30.123Z,12.20
2019-04-09T15:33:59.949Z,12.20
2019-04-09T15:36:29.799Z,12.10
2019-04-09T15:39:01.307Z,12.10
2019-04-09T15:41:31.807Z,12.00
2019-04-09T15:44:01.596Z,12.00
2019-04-09T15:46:33.011Z,12.00
2019-04-09T15:49:03.180Z,12.00
2019-04-09T15:51:33.157Z,12.00
2019-04-09T15:54:03.966Z,12.00
2019-04-09T15:56:34.807Z,12.00
2019-04-09T15:59:06.308Z,12.10
2019-04-09T16:01:36.234Z,12.10
2019-04-09T16:04:05.770Z,12.10
2019-04-09T16:06:36.677Z,12.10
2019-04-09T16:09:10.735Z,12.10
2019-04-09T16:11:47.436Z,12.10
2019-04-09T16:14:17.197Z,11.90
2019-04-09T16:16:46.837Z,11.80
2019-04-09T16:19:16.791Z,11.70
2019-04-09T16:21:46.765Z,11.60
2019-04-09T16:24:17.230Z,11.60
2019-04-09T16:26:47.576Z,11.60
2019-04-09T16:29:17.363Z,11.60
2019-04-09T16:31:47.230Z,11.60
2019-04-09T16:34:17.708Z,11.60
2019-04-09T16:36:59.964Z,11.50
2019-04-09T16:39:18.830Z,11.50
2019-04-09T16:41:48.584Z,11.40
2019-04-09T16:44:18.284Z,11.40
2019-04-09T16:46:47.985Z,11.20
2019-04-09T16:49:17.725Z,11.20
2019-04-09T16:51:47.569Z,11.20
2019-04-09T16:54:17.956Z,11.10
2019-04-09T16:56:48.511Z,11.10
2019-04-09T16:59:18.424Z,11.10
2019-04-09T17:01:47.967Z,11.00
2019-04-09T17:04:24.310Z,10.90
2019-04-09T17:06:51.944Z,10.90
2019-04-09T17:09:29.537Z,10.90
2019-04-09T17:11:52.868Z,10.80
2019-04-09T17:14:22.413Z,10.80
2019-04-09T17:16:53.181Z,10.70
2019-04-09T17:19:23.459Z,10.70
2019-04-09T17:21:53.977Z,10.70
2019-04-09T17:24:23.668Z,10.60
2019-04-09T17:26:54.138Z,10.50
2019-04-09T17:29:24.618Z,10.50
2019-04-09T17:31:54.565Z,10.40
2019-04-09T17:34:31.965Z,10.40
2019-04-09T17:36:56.550Z,10.30
2019-04-09T17:39:26.739Z,10.30
2019-04-09T17:42:04.745Z,10.20
2019-04-09T17:44:28.992Z,10.10
2019-04-09T17:46:58.766Z,10.10
2019-04-09T17:49:29.289Z,10.00
2019-04-09T17:51:59.673Z,9.90
2019-04-09T17:54:30.167Z,9.90
2019-04-09T17:57:00.767Z,9.80
2019-04-09T17:59:31.943Z,9.70
2019-04-09T18:02:02.245Z,9.70
2019-04-09T18:04:42.866Z,9.60
2019-04-09T18:07:04.106Z,9.60
2019-04-09T18:09:33.903Z,9.50
2019-04-09T18:12:03.363Z,9.40
2019-04-09T18:14:33.052Z,9.30
2019-04-09T18:17:02.740Z,9.20
2019-04-09T18:19:32.925Z,9.20
2019-04-09T18:22:03.130Z,9.10
2019-04-09T18:24:33.790Z,9.10
2019-04-09T18:27:03.873Z,9.10
2019-04-09T18:29:33.589Z,9.00
2019-04-09T18:32:03.254Z,8.90
2019-04-09T18:34:33.994Z,8.90
2019-04-09T18:37:04.247Z,8.80
2019-04-09T18:39:33.928Z,8.80
2019-04-09T18:42:03.739Z,8.70
2019-04-09T18:44:34.195Z,8.60
2019-04-09T18:47:03.888Z,8.50
2019-04-09T18:49:33.771Z,8.50
2019-04-09T18:52:04.888Z,8.50
2019-04-09T18:54:35.695Z,8.40
2019-04-09T18:57:08.378Z,8.40
2019-04-09T18:59:37.182Z,8.30
2019-04-09T19:02:08.104Z,8.30
2019-04-09T19:04:38.302Z,8.20
2019-04-09T19:07:08.198Z,8.20
2019-04-09T19:09:38.654Z,8.10
2019-04-09T19:12:08.209Z,8.10
2019-04-09T19:14:37.737Z,8.00
2019-04-09T19:17:07.284Z,8.00
2019-04-09T19:19:36.884Z,8.00
2019-04-09T19:22:07.283Z,7.90
2019-04-09T19:24:37.608Z,7.90
2019-04-09T19:27:07.393Z,7.80
2019-04-09T19:29:37.196Z,7.80
2019-04-09T19:32:09.517Z,7.70
2019-04-09T19:34:39.318Z,7.70
2019-04-09T19:37:09.015Z,7.70
2019-04-09T19:39:41.376Z,7.60
2019-04-09T19:42:16.060Z,7.50
2019-04-09T19:44:43.075Z,7.50
2019-04-09T19:47:13.384Z,7.40
2019-04-09T19:49:43.448Z,7.40
2019-04-09T19:52:13.110Z,7.30
2019-04-09T19:54:42.641Z,7.30
2019-04-09T19:57:13.477Z,7.20
2019-04-09T19:59:44.449Z,7.10
2019-04-09T20:02:14.609Z,7.10
2019-04-09T20:04:45.406Z,7.00
2019-04-09T20:07:16.360Z,7.00
2019-04-09T20:09:46.512Z,7.00
2019-04-09T20:12:16.072Z,6.90
2019-04-09T20:14:45.575Z,6.90
2019-04-09T20:17:15.800Z,6.90
2019-04-09T20:19:45.539Z,6.80
2019-04-09T20:22:15.335Z,6.80
2019-04-09T20:24:44.975Z,6.70
2019-04-09T20:27:14.951Z,6.70
2019-04-09T20:29:45.567Z,6.70
2019-04-09T20:32:16.589Z,6.70
2019-04-09T20:35:00.137Z,6.60
2019-04-09T20:37:18.711Z,6.60
2019-04-09T20:39:49.547Z,6.60
2019-04-09T20:42:19.365Z,6.50
2019-04-09T20:44:49.648Z,6.50
2019-04-09T20:47:20.484Z,6.40
2019-04-09T20:49:50.472Z,6.40
2019-04-09T20:52:20.179Z,6.30
2019-04-09T20:54:51.347Z,6.30
2019-04-09T20:57:21.805Z,6.30
2019-04-09T21:00:06.114Z,6.20
2019-04-09T21:02:29.108Z,6.20
2019-04-09T21:04:58.760Z,6.20
2019-04-09T21:07:28.520Z,6.10
2019-04-09T21:09:58.279Z,6.10
2019-04-09T21:12:27.811Z,6.00
2019-04-09T21:14:57.769Z,6.00
2019-04-09T21:17:27.527Z,5.90
2019-04-09T21:19:58.123Z,5.80
2019-04-09T21:22:28.417Z,5.80
2019-04-09T21:24:58.190Z,5.80
2019-04-09T21:27:27.679Z,5.70
2019-04-09T21:29:57.603Z,5.70
2019-04-09T21:32:28.451Z,5.70
2019-04-09T21:34:59.100Z,5.60
2019-04-09T21:37:28.639Z,5.60
2019-04-09T21:39:58.151Z,5.60
2019-04-09T21:42:28.758Z,5.60
2019-04-09T21:44:58.491Z,5.50
2019-04-09T21:47:28.253Z,5.40
2019-04-09T21:49:58.274Z,5.30
2019-04-09T21:52:28.582Z,5.30
2019-04-09T21:54:58.321Z,5.20
2019-04-09T21:57:28.207Z,5.20
2019-04-09T21:59:57.848Z,5.20
2019-04-09T22:02:28.776Z,5.10
2019-04-09T22:04:58.512Z,5.10
2019-04-09T22:07:28.167Z,5.10
2019-04-09T22:09:57.617Z,5.00
2019-04-09T22:12:27.452Z,5.00
2019-04-09T22:14:57.303Z,4.90
2019-04-09T22:17:27.765Z,4.90
2019-04-09T22:20:00.413Z,4.80
2019-04-09T22:22:29.385Z,4.80
2019-04-09T22:24:59.083Z,4.80
2019-04-09T22:27:28.865Z,4.70
2019-04-09T22:29:58.600Z,4.70
2019-04-09T22:32:28.123Z,4.60
2019-04-09T22:34:57.999Z,4.50
2019-04-09T22:37:28.650Z,4.50
2019-04-09T22:39:58.886Z,4.50
2019-04-09T22:42:29.540Z,4.40
2019-04-09T22:44:59.260Z,4.40
2019-04-09T22:47:28.772Z,4.30
2019-04-09T22:49:59.587Z,4.30
2019-04-09T22:52:29.894Z,4.30
2019-04-09T22:55:00.140Z,4.20
2019-04-09T22:57:29.679Z,4.20
2019-04-09T22:59:59.901Z,4.10
2019-04-09T23:02:31.364Z,4.10
2019-04-09T23:05:20.897Z,4.10
2019-04-09T23:07:52.512Z,4.10
2019-04-09T23:10:34.036Z,4.00
2019-04-09T23:13:04.441Z,3.90
2019-04-09T23:15:38.668Z,4.00
2019-04-09T23:18:08.767Z,3.90
2019-04-09T23:20:38.961Z,3.80
2019-04-09T23:23:08.928Z,3.80
2019-04-09T23:25:39.137Z,3.80
2019-04-09T23:28:08.791Z,3.70
2019-04-09T23:30:38.410Z,3.70
2019-04-09T23:33:08.119Z,3.60
2019-04-09T23:35:37.628Z,3.60
2019-04-09T23:38:07.086Z,3.60
2019-04-09T23:40:37.587Z,3.50
2019-04-09T23:43:07.784Z,3.50
2019-04-09T23:45:37.547Z,3.40
2019-04-09T23:48:08.338Z,3.40
2019-04-09T23:50:38.245Z,3.40
2019-04-09T23:53:08.607Z,3.30
2019-04-09T23:55:38.755Z,3.30
2019-04-09T23:58:09.169Z,3.20
